createdAt,value
2019-03-03T00:01:35.226Z,21.80
2019-03-03T00:04:01.766Z,21.90
2019-03-03T00:06:27.980Z,20.60
2019-03-03T00:08:54.248Z,21.47
2019-03-03T00:11:20.462Z,22.13
2019-03-03T00:13:46.684Z,22.17
2019-03-03T00:16:12.961Z,23.43
2019-03-03T00:18:39.382Z,22.13
2019-03-03T00:21:05.602Z,20.57
2019-03-03T00:23:31.848Z,22.23
2019-03-03T00:25:58.066Z,22.30
2019-03-03T00:28:24.315Z,22.17
2019-03-03T00:30:50.526Z,22.97
2019-03-03T00:33:16.775Z,22.10
2019-03-03T00:35:43.263Z,21.63
2019-03-03T00:38:17.447Z,22.67
2019-03-03T00:40:51.387Z,21.47
2019-03-03T00:43:28.415Z,22.50
2019-03-03T00:45:56.935Z,22.43
2019-03-03T00:48:27.847Z,20.97
2019-03-03T00:51:04.848Z,20.57
2019-03-03T00:53:41.747Z,21.80
2019-03-03T00:56:09.934Z,21.50
2019-03-03T00:58:46.951Z,22.07
2019-03-03T01:01:15.471Z,21.97
2019-03-03T01:03:49.408Z,22.10
2019-03-03T01:06:34.461Z,20.27
2019-03-03T01:09:15.532Z,21.23
2019-03-03T01:11:43.695Z,21.60
2019-03-03T01:14:11.811Z,20.13
2019-03-03T01:16:42.985Z,20.77
2019-03-03T01:19:27.854Z,19.57
2019-03-03T01:21:56.005Z,21.50
2019-03-03T01:24:24.131Z,21.40
2019-03-03T01:26:50.373Z,22.20
2019-03-03T01:29:16.587Z,20.80
2019-03-03T01:31:42.923Z,21.87
2019-03-03T01:34:09.254Z,21.50
2019-03-03T01:36:35.614Z,20.37
2019-03-03T01:39:02.435Z,21.30
2019-03-03T01:41:28.793Z,20.80
2019-03-03T01:43:55.021Z,19.70
2019-03-03T01:46:21.255Z,20.30
2019-03-03T01:48:47.604Z,20.67
2019-03-03T01:51:13.808Z,19.43
2019-03-03T01:53:40.041Z,19.93
2019-03-03T01:56:06.264Z,19.20
2019-03-03T01:58:32.530Z,19.73
2019-03-03T02:00:58.750Z,19.20
2019-03-03T02:03:25.398Z,18.80
2019-03-03T02:05:51.623Z,20.60
2019-03-03T02:08:18.187Z,18.37
2019-03-03T02:10:44.416Z,16.60
2019-03-03T02:13:11.170Z,18.10
2019-03-03T02:15:37.522Z,15.67
2019-03-03T02:18:03.936Z,14.50
2019-03-03T02:20:30.152Z,15.93
2019-03-03T02:22:56.411Z,15.77
2019-03-03T02:25:22.638Z,16.45
2019-03-03T02:27:49.352Z,17.03
2019-03-03T02:30:18.007Z,16.47
2019-03-03T02:32:44.430Z,17.63
2019-03-03T02:35:10.764Z,17.60
2019-03-03T02:37:37.040Z,16.70
2019-03-03T02:40:06.972Z,15.83
2019-03-03T02:42:33.225Z,17.30
2019-03-03T02:44:59.464Z,17.03
2019-03-03T02:47:26.064Z,16.03
2019-03-03T02:49:52.280Z,15.27
2019-03-03T02:52:18.514Z,15.13
2019-03-03T02:54:44.739Z,15.07
2019-03-03T02:57:10.996Z,13.70
2019-03-03T02:59:37.411Z,13.97
2019-03-03T03:02:06.081Z,15.20
2019-03-03T03:04:32.289Z,13.97
2019-03-03T03:07:06.776Z,14.47
2019-03-03T03:09:34.898Z,13.77
2019-03-03T03:12:09.433Z,13.83
2019-03-03T03:14:52.699Z,13.60
2019-03-03T03:17:29.552Z,13.00
2019-03-03T03:19:57.714Z,13.20
2019-03-03T03:22:42.484Z,12.40
2019-03-03T03:25:10.719Z,11.00
2019-03-03T03:27:47.975Z,10.67
2019-03-03T03:30:35.980Z,10.10
2019-03-03T03:33:04.211Z,11.00
2019-03-03T03:35:32.354Z,10.30
2019-03-03T03:38:18.766Z,10.50
2019-03-03T03:40:46.924Z,9.87
2019-03-03T03:43:15.068Z,9.73
2019-03-03T03:46:00.077Z,8.97
2019-03-03T03:48:28.195Z,10.27
2019-03-03T03:51:08.635Z,9.17
2019-03-03T03:53:36.752Z,8.97
2019-03-03T03:56:08.030Z,9.00
2019-03-03T03:58:39.092Z,8.40
2019-03-03T04:01:13.524Z,8.23
2019-03-03T04:03:44.415Z,7.07
2019-03-03T04:06:12.639Z,11.90
2019-03-03T04:08:56.171Z,8.40
2019-03-03T04:11:29.888Z,6.97
2019-03-03T04:14:07.169Z,8.23
2019-03-03T04:16:38.349Z,6.93
2019-03-03T04:19:06.491Z,6.73
2019-03-03T04:21:40.524Z,6.83
2019-03-03T04:24:08.664Z,7.50
2019-03-03T04:26:54.942Z,6.73
2019-03-03T04:29:32.084Z,6.70
2019-03-03T04:32:00.268Z,8.40
2019-03-03T04:34:34.679Z,6.20
2019-03-03T04:37:02.841Z,6.60
2019-03-03T04:39:30.976Z,7.03
2019-03-03T04:41:59.136Z,6.87
2019-03-03T04:44:42.607Z,6.67
2019-03-03T04:47:10.865Z,7.33
2019-03-03T04:49:38.958Z,6.83
2019-03-03T04:52:12.867Z,6.70
2019-03-03T04:54:53.323Z,6.80
2019-03-03T04:57:24.492Z,6.50
2019-03-03T04:59:55.758Z,6.47
2019-03-03T05:02:27.331Z,7.00
2019-03-03T05:04:58.557Z,7.30
2019-03-03T05:07:35.655Z,6.70
2019-03-03T05:10:24.723Z,6.90
2019-03-03T05:12:52.907Z,6.37
2019-03-03T05:15:21.131Z,6.73
2019-03-03T05:17:49.267Z,7.40
2019-03-03T05:20:16.925Z,7.17
2019-03-03T05:22:43.159Z,6.90
2019-03-03T05:25:09.495Z,6.87
2019-03-03T05:27:35.748Z,7.00
2019-03-03T05:30:04.203Z,8.00
2019-03-03T05:32:30.429Z,7.40
2019-03-03T05:34:56.704Z,7.47
2019-03-03T05:37:23.425Z,7.83
2019-03-03T05:39:50.391Z,7.17
2019-03-03T05:42:16.764Z,7.40
2019-03-03T05:44:44.427Z,8.77
2019-03-03T05:47:10.701Z,7.07
2019-03-03T05:49:37.535Z,7.77
2019-03-03T05:52:03.899Z,7.30
2019-03-03T05:54:30.226Z,7.70
2019-03-03T05:56:56.435Z,6.93
2019-03-03T05:59:22.693Z,7.30
2019-03-03T06:01:48.916Z,8.20
2019-03-03T06:04:15.184Z,8.20
2019-03-03T06:06:41.417Z,7.70
2019-03-03T06:09:07.636Z,7.53
2019-03-03T06:11:33.902Z,8.20
2019-03-03T06:14:00.136Z,7.90
2019-03-03T06:16:26.737Z,9.20
2019-03-03T06:18:52.934Z,8.47
2019-03-03T06:21:19.165Z,8.40
2019-03-03T06:23:45.690Z,9.37
2019-03-03T06:26:12.228Z,10.43
2019-03-03T06:28:38.499Z,10.80
2019-03-03T06:31:04.732Z,10.20
2019-03-03T06:33:50.852Z,8.83
2019-03-03T06:36:17.414Z,9.83
2019-03-03T06:38:43.626Z,10.40
2019-03-03T06:41:10.391Z,10.80
2019-03-03T06:43:36.627Z,10.40
2019-03-03T06:46:02.892Z,10.77
2019-03-03T06:48:29.211Z,9.23
2019-03-03T06:50:55.423Z,9.73
2019-03-03T06:53:21.685Z,9.43
2019-03-03T06:55:48.170Z,8.70
2019-03-03T06:58:14.397Z,9.00
2019-03-03T07:00:40.647Z,8.97
2019-03-03T07:03:07.162Z,8.83
2019-03-03T07:05:33.383Z,9.17
2019-03-03T07:07:59.631Z,9.23
2019-03-03T07:10:25.864Z,8.10
2019-03-03T07:12:52.140Z,7.80
2019-03-03T07:15:38.232Z,9.00
2019-03-03T07:18:04.475Z,8.77
2019-03-03T07:20:30.720Z,7.80
2019-03-03T07:22:56.958Z,8.70
2019-03-03T07:25:23.183Z,8.10
2019-03-03T07:27:49.421Z,8.50
2019-03-03T07:30:15.765Z,8.10
2019-03-03T07:32:43.933Z,8.30
2019-03-03T07:35:10.359Z,8.00
2019-03-03T07:37:36.776Z,8.10
2019-03-03T07:40:04.591Z,8.33
2019-03-03T07:42:32.923Z,9.30
2019-03-03T07:44:59.268Z,8.60
2019-03-03T07:47:25.596Z,8.53
2019-03-03T07:49:51.854Z,9.13
2019-03-03T07:52:18.410Z,9.07
2019-03-03T07:54:45.014Z,8.87
2019-03-03T07:57:11.248Z,8.93
2019-03-03T07:59:37.503Z,8.47
2019-03-03T08:02:03.835Z,8.27
2019-03-03T08:04:30.104Z,8.50
2019-03-03T08:06:56.764Z,8.10
2019-03-03T08:09:22.983Z,8.23
2019-03-03T08:11:49.233Z,8.73
2019-03-03T08:14:15.448Z,7.53
2019-03-03T08:16:41.719Z,8.03
2019-03-03T08:19:07.955Z,7.90
2019-03-03T08:21:40.244Z,7.80
2019-03-03T08:24:06.810Z,7.60
2019-03-03T08:26:33.039Z,8.07
2019-03-03T08:28:59.282Z,8.70
2019-03-03T08:31:25.511Z,8.20
2019-03-03T08:33:52.033Z,8.60
2019-03-03T08:36:18.432Z,8.00
2019-03-03T08:38:44.671Z,7.97
2019-03-03T08:41:10.932Z,9.10
2019-03-03T08:43:39.409Z,8.20
2019-03-03T08:46:10.371Z,7.60
2019-03-03T08:48:49.695Z,8.20
2019-03-03T08:51:17.873Z,8.37
2019-03-03T08:53:57.995Z,8.70
2019-03-03T08:56:32.222Z,9.03
2019-03-03T08:59:16.939Z,8.13
2019-03-03T09:01:54.032Z,8.17
2019-03-03T09:04:37.206Z,8.90
2019-03-03T09:07:05.786Z,8.13
2019-03-03T09:09:43.063Z,8.20
2019-03-03T09:12:24.479Z,8.30
2019-03-03T09:15:09.249Z,7.60
2019-03-03T09:17:54.144Z,7.90
2019-03-03T09:20:28.300Z,7.70
2019-03-03T09:22:59.558Z,8.23
2019-03-03T09:25:42.695Z,7.70
2019-03-03T09:28:16.898Z,7.63
2019-03-03T09:30:48.442Z,7.50
2019-03-03T09:33:16.575Z,7.40
2019-03-03T09:35:54.107Z,7.40
2019-03-03T09:38:22.608Z,7.17
2019-03-03T09:41:07.655Z,6.70
2019-03-03T09:43:52.939Z,7.17
2019-03-03T09:46:27.158Z,6.70
2019-03-03T09:49:13.734Z,7.23
2019-03-03T09:51:51.081Z,6.63
2019-03-03T09:54:31.337Z,6.60
2019-03-03T09:57:11.735Z,6.80
2019-03-03T09:59:58.037Z,6.60
2019-03-03T10:02:31.947Z,6.47
2019-03-03T10:05:17.168Z,6.57
2019-03-03T10:07:48.319Z,6.43
2019-03-03T10:10:28.829Z,6.07
2019-03-03T10:13:13.622Z,6.47
2019-03-03T10:15:41.768Z,6.90
2019-03-03T10:18:21.935Z,7.10
2019-03-03T10:20:50.431Z,7.30
2019-03-03T10:23:27.643Z,6.57
2019-03-03T10:25:55.764Z,7.10
2019-03-03T10:28:32.922Z,7.90
2019-03-03T10:31:16.127Z,7.53
2019-03-03T10:34:00.982Z,8.40
2019-03-03T10:36:44.243Z,7.53
2019-03-03T10:39:21.396Z,7.50
2019-03-03T10:42:06.159Z,8.00
2019-03-03T10:44:43.125Z,9.00
2019-03-03T10:47:20.104Z,8.87
2019-03-03T10:49:57.081Z,8.70
2019-03-03T10:52:42.165Z,8.87
2019-03-03T10:55:27.642Z,7.43
2019-03-03T10:58:01.794Z,8.40
2019-03-03T11:00:30.134Z,9.10
2019-03-03T11:03:07.636Z,8.00
2019-03-03T11:05:35.822Z,8.33
2019-03-03T11:08:10.230Z,9.43
2019-03-03T11:10:57.154Z,7.93
2019-03-03T11:13:17.977Z,8.50
2019-03-03T11:15:52.179Z,7.63
2019-03-03T11:18:20.622Z,8.03
2019-03-03T11:20:51.518Z,8.13
2019-03-03T11:23:36.463Z,7.33
2019-03-03T11:26:21.413Z,7.30
2019-03-03T11:29:06.899Z,7.20
2019-03-03T11:31:51.636Z,7.40
2019-03-03T11:34:31.747Z,6.33
2019-03-03T11:37:02.663Z,6.77
2019-03-03T11:39:39.651Z,7.27
2019-03-03T11:42:10.622Z,6.67
2019-03-03T11:44:41.999Z,7.17
2019-03-03T11:47:12.920Z,6.50
2019-03-03T11:49:43.885Z,6.10
2019-03-03T11:52:16.690Z,6.67
2019-03-03T11:54:47.955Z,5.70
2019-03-03T11:57:16.091Z,5.50
2019-03-03T12:00:05.375Z,6.03
2019-03-03T12:02:36.185Z,5.50
2019-03-03T12:05:06.654Z,6.77
2019-03-03T12:07:35.235Z,6.77
2019-03-03T12:10:09.386Z,6.70
2019-03-03T12:12:37.562Z,5.80
2019-03-03T12:15:25.783Z,6.40
2019-03-03T12:17:56.914Z,5.87
2019-03-03T12:20:25.095Z,6.20
2019-03-03T12:22:53.462Z,6.30
2019-03-03T12:25:21.823Z,6.00
2019-03-03T12:28:08.544Z,6.83
2019-03-03T12:30:59.072Z,6.17
2019-03-03T12:33:45.374Z,6.47
2019-03-03T12:36:41.301Z,5.70
2019-03-03T12:39:15.722Z,5.70
2019-03-03T12:42:00.633Z,6.13
2019-03-03T12:44:28.914Z,5.33
2019-03-03T12:47:15.537Z,5.83
2019-03-03T12:49:43.714Z,6.07
2019-03-03T12:52:14.811Z,5.50
2019-03-03T12:55:01.470Z,5.30
2019-03-03T12:57:44.763Z,5.00
2019-03-03T13:00:19.021Z,4.67
2019-03-03T13:02:50.433Z,5.63
2019-03-03T13:05:29.054Z,5.33
2019-03-03T13:07:57.111Z,5.03
2019-03-03T13:10:31.396Z,5.20
2019-03-03T13:13:02.324Z,4.80
2019-03-03T13:15:30.848Z,5.27
2019-03-03T13:18:15.950Z,5.00
2019-03-03T13:20:47.324Z,5.30
2019-03-03T13:23:15.766Z,4.90
2019-03-03T13:25:51.382Z,5.20
2019-03-03T13:28:21.295Z,5.23
2019-03-03T13:30:56.269Z,5.20
2019-03-03T13:33:27.116Z,5.10
2019-03-03T13:36:11.883Z,5.43
2019-03-03T13:38:40.372Z,5.40
2019-03-03T13:41:08.531Z,6.00
2019-03-03T13:43:34.879Z,5.77
2019-03-03T13:46:01.396Z,5.20
2019-03-03T13:48:27.787Z,4.97
2019-03-03T13:50:53.978Z,4.70
2019-03-03T13:53:20.714Z,4.50
2019-03-03T13:55:47.147Z,4.90
2019-03-03T13:58:13.394Z,4.97
2019-03-03T14:00:39.931Z,4.90
2019-03-03T14:03:06.261Z,4.93
2019-03-03T14:05:33.902Z,4.30
2019-03-03T14:08:00.666Z,4.10
2019-03-03T14:10:27.079Z,4.43
2019-03-03T14:12:53.378Z,5.30
2019-03-03T14:15:19.724Z,5.30
2019-03-03T14:17:46.691Z,5.20
2019-03-03T14:20:18.876Z,4.57
2019-03-03T14:22:45.521Z,4.90
2019-03-03T14:25:12.962Z,5.13
2019-03-03T14:27:45.778Z,5.20
2019-03-03T14:30:21.197Z,4.50
2019-03-03T14:32:47.454Z,4.80
2019-03-03T14:35:15.187Z,4.90
2019-03-03T14:37:41.538Z,5.73
2019-03-03T14:40:10.563Z,5.50
2019-03-03T14:42:37.003Z,5.07
2019-03-03T14:45:06.656Z,4.70
2019-03-03T14:47:32.936Z,5.03
2019-03-03T14:49:59.167Z,5.20
2019-03-03T14:52:25.439Z,5.30
2019-03-03T14:54:51.664Z,4.90
2019-03-03T14:57:17.922Z,5.23
2019-03-03T14:59:44.151Z,5.13
2019-03-03T15:02:10.397Z,5.10
2019-03-03T15:04:36.675Z,4.80
2019-03-03T15:07:03.210Z,5.20
2019-03-03T15:09:29.446Z,5.77
2019-03-03T15:11:55.804Z,5.53
2019-03-03T15:14:22.023Z,5.10
2019-03-03T15:16:48.385Z,5.30
2019-03-03T15:19:14.625Z,4.43
2019-03-03T15:21:40.974Z,3.93
2019-03-03T15:24:07.522Z,4.27
2019-03-03T15:26:34.523Z,4.33
2019-03-03T15:29:00.863Z,4.60
2019-03-03T15:31:27.203Z,5.00
2019-03-03T15:33:53.771Z,5.43
2019-03-03T15:36:20.023Z,5.07
2019-03-03T15:38:46.245Z,4.60
2019-03-03T15:41:12.483Z,4.97
2019-03-03T15:43:38.721Z,3.90
2019-03-03T15:46:05.483Z,4.47
2019-03-03T15:48:31.728Z,4.07
2019-03-03T15:50:57.970Z,4.13
2019-03-03T15:53:24.215Z,4.00
2019-03-03T15:55:50.877Z,4.40
2019-03-03T15:58:17.105Z,5.57
2019-03-03T16:00:43.765Z,5.40
2019-03-03T16:03:10.316Z,6.40
2019-03-03T16:05:36.931Z,6.90
2019-03-03T16:08:03.154Z,7.83
2019-03-03T16:10:29.666Z,6.83
2019-03-03T16:12:55.939Z,6.77
2019-03-03T16:15:22.648Z,5.93
2019-03-03T16:17:49.507Z,5.27
2019-03-03T16:20:20.441Z,6.13
2019-03-03T16:22:46.875Z,5.27
2019-03-03T16:25:15.288Z,5.10
2019-03-03T16:27:41.734Z,6.10
2019-03-03T16:30:11.571Z,5.73
2019-03-03T16:32:37.924Z,5.67
2019-03-03T16:35:05.773Z,5.10
2019-03-03T16:37:32.317Z,5.60
2019-03-03T16:39:58.585Z,6.00
2019-03-03T16:42:24.819Z,5.97
2019-03-03T16:44:51.052Z,5.53
2019-03-03T16:47:17.647Z,6.47
2019-03-03T16:49:43.903Z,5.70
2019-03-03T16:52:10.176Z,6.97
2019-03-03T16:54:36.391Z,6.43
2019-03-03T16:57:02.743Z,6.33
2019-03-03T16:59:28.971Z,6.73
2019-03-03T17:01:55.249Z,6.37
2019-03-03T17:04:21.494Z,7.37
2019-03-03T17:06:47.735Z,6.83
2019-03-03T17:09:14.056Z,7.27
2019-03-03T17:11:40.348Z,7.10
2019-03-03T17:14:06.584Z,8.10
2019-03-03T17:16:32.827Z,7.00
2019-03-03T17:18:59.333Z,7.97
2019-03-03T17:21:25.615Z,8.10
2019-03-03T17:23:51.806Z,8.00
2019-03-03T17:26:18.158Z,7.90
2019-03-03T17:28:44.405Z,6.73
2019-03-03T17:31:12.333Z,7.70
2019-03-03T17:33:38.707Z,6.67
2019-03-03T17:36:04.960Z,7.07
2019-03-03T17:38:31.531Z,7.70
2019-03-03T17:40:57.776Z,7.30
2019-03-03T17:43:24.116Z,7.20
2019-03-03T17:45:50.718Z,6.70
2019-03-03T17:48:17.246Z,7.50
2019-03-03T17:50:43.487Z,7.53
2019-03-03T17:53:12.786Z,8.60
2019-03-03T17:55:39.056Z,8.10
2019-03-03T17:58:14.201Z,8.30
2019-03-03T18:00:45.162Z,8.10
2019-03-03T18:03:11.379Z,7.80
2019-03-03T18:05:37.664Z,7.87
2019-03-03T18:08:04.000Z,7.97
2019-03-03T18:10:30.393Z,7.83
2019-03-03T18:12:56.598Z,8.63
2019-03-03T18:15:22.841Z,9.23
2019-03-03T18:17:50.430Z,10.03
2019-03-03T18:20:19.739Z,9.80
2019-03-03T18:22:45.966Z,11.03
2019-03-03T18:25:15.259Z,10.57
2019-03-03T18:27:41.789Z,10.23
2019-03-03T18:30:15.878Z,11.37
2019-03-03T18:32:44.053Z,9.27
2019-03-03T18:35:10.509Z,10.27
2019-03-03T18:37:36.830Z,9.67
2019-03-03T18:40:06.498Z,10.60
2019-03-03T18:42:33.129Z,10.20
2019-03-03T18:44:59.992Z,9.87
2019-03-03T18:47:26.790Z,10.43
2019-03-03T18:49:53.072Z,10.63
2019-03-03T18:52:19.298Z,10.73
2019-03-03T18:54:45.886Z,11.10
2019-03-03T18:57:12.125Z,10.20
2019-03-03T18:59:38.449Z,11.57
2019-03-03T19:02:05.109Z,12.40
2019-03-03T19:04:31.354Z,11.33
2019-03-03T19:06:57.966Z,11.90
2019-03-03T19:09:24.580Z,11.40
2019-03-03T19:11:51.240Z,11.27
2019-03-03T19:14:17.460Z,11.00
2019-03-03T19:16:43.834Z,12.03
2019-03-03T19:19:10.048Z,10.43
2019-03-03T19:21:36.279Z,12.20
2019-03-03T19:24:02.636Z,12.60
2019-03-03T19:26:28.906Z,11.30
2019-03-03T19:28:55.427Z,11.33
2019-03-03T19:31:21.989Z,12.10
2019-03-03T19:33:50.915Z,11.87
2019-03-03T19:36:19.419Z,11.87
2019-03-03T19:38:45.643Z,12.67
2019-03-03T19:41:11.977Z,12.20
2019-03-03T19:43:38.952Z,11.63
2019-03-03T19:46:08.047Z,11.80
2019-03-03T19:48:35.889Z,13.10
2019-03-03T19:51:03.337Z,13.67
2019-03-03T19:53:29.825Z,14.70
2019-03-03T19:55:56.440Z,14.90
2019-03-03T19:58:22.982Z,14.03
2019-03-03T20:00:49.528Z,13.83
2019-03-03T20:03:15.851Z,13.20
2019-03-03T20:05:42.123Z,13.63
2019-03-03T20:08:08.651Z,14.77
2019-03-03T20:10:35.303Z,13.77
2019-03-03T20:13:01.822Z,15.20
2019-03-03T20:15:28.424Z,16.20
2019-03-03T20:17:54.972Z,15.10
2019-03-03T20:20:21.316Z,16.60
2019-03-03T20:22:47.931Z,16.77
2019-03-03T20:25:14.285Z,16.10
2019-03-03T20:27:41.098Z,16.47
2019-03-03T20:30:10.950Z,16.87
2019-03-03T20:32:37.300Z,17.33
2019-03-03T20:35:06.058Z,15.97
2019-03-03T20:37:32.576Z,16.30
2019-03-03T20:39:58.822Z,16.73
2019-03-03T20:42:25.534Z,15.77
2019-03-03T20:44:51.794Z,17.27
2019-03-03T20:47:18.060Z,16.97
2019-03-03T20:49:44.435Z,16.90
2019-03-03T20:52:10.966Z,16.87
2019-03-03T20:54:37.221Z,17.70
2019-03-03T20:57:03.476Z,17.53
2019-03-03T20:59:29.731Z,17.17
2019-03-03T21:01:55.969Z,16.97
2019-03-03T21:04:22.547Z,16.77
2019-03-03T21:06:48.775Z,16.63
2019-03-03T21:09:15.023Z,15.67
2019-03-03T21:11:41.239Z,16.77
2019-03-03T21:14:07.507Z,16.00
2019-03-03T21:16:34.078Z,16.27
2019-03-03T21:19:00.317Z,15.00
2019-03-03T21:21:26.953Z,17.67
2019-03-03T21:23:53.187Z,14.90
2019-03-03T21:26:21.968Z,14.70
2019-03-03T21:28:48.207Z,15.40
2019-03-03T21:31:14.462Z,14.87
2019-03-03T21:33:40.821Z,14.13
2019-03-03T21:36:07.075Z,14.23
2019-03-03T21:38:33.299Z,14.50
2019-03-03T21:41:00.056Z,14.57
2019-03-03T21:43:26.289Z,12.97
2019-03-03T21:45:52.646Z,13.50
2019-03-03T21:48:19.262Z,12.20
2019-03-03T21:50:45.511Z,13.27
2019-03-03T21:53:11.755Z,12.60
2019-03-03T21:55:38.009Z,12.30
2019-03-03T21:58:04.550Z,12.80
2019-03-03T22:00:33.972Z,11.83
2019-03-03T22:03:00.216Z,12.23
2019-03-03T22:05:26.659Z,11.40
2019-03-03T22:07:53.275Z,12.00
2019-03-03T22:10:21.433Z,12.33
2019-03-03T22:12:47.643Z,11.40
2019-03-03T22:15:13.896Z,11.17
2019-03-03T22:17:40.121Z,10.10
2019-03-03T22:20:07.766Z,9.80
2019-03-03T22:22:33.986Z,10.83
2019-03-03T22:25:00.286Z,11.43
2019-03-03T22:27:26.496Z,9.80
2019-03-03T22:29:52.729Z,10.57
2019-03-03T22:32:19.021Z,10.50
2019-03-03T22:34:45.513Z,10.03
2019-03-03T22:37:12.137Z,10.37
2019-03-03T22:39:38.767Z,9.40
2019-03-03T22:42:05.300Z,9.83
2019-03-03T22:44:31.506Z,10.00
2019-03-03T22:46:57.785Z,9.87
2019-03-03T22:49:24.118Z,9.73
2019-03-03T22:51:50.355Z,9.60
2019-03-03T22:54:16.965Z,9.50
2019-03-03T22:56:43.485Z,9.97
2019-03-03T22:59:09.707Z,10.80
2019-03-03T23:01:36.643Z,11.47
2019-03-03T23:04:12.734Z,10.50
2019-03-03T23:06:51.200Z,10.00
2019-03-03T23:09:40.639Z,8.20
2019-03-03T23:12:30.394Z,7.80
2019-03-03T23:15:29.478Z,9.27
2019-03-03T23:18:05.295Z,8.33
2019-03-03T23:20:38.436Z,8.40
2019-03-03T23:23:17.096Z,8.17
2019-03-03T23:25:50.775Z,8.93
2019-03-03T23:28:18.325Z,8.63
2019-03-03T23:30:44.641Z,9.13
2019-03-03T23:33:10.867Z,9.37
2019-03-03T23:35:37.107Z,8.50
2019-03-03T23:38:03.358Z,8.80
2019-03-03T23:40:29.599Z,8.27
2019-03-03T23:42:55.861Z,9.53
2019-03-03T23:45:22.119Z,9.30
2019-03-03T23:47:48.363Z,9.07
2019-03-03T23:50:14.983Z,8.87
2019-03-03T23:52:41.198Z,9.80
2019-03-03T23:55:07.868Z,11.47
2019-03-03T23:57:34.086Z,9.47
